Grants, Grants-Milan Municipal Airport (KGNT)

NameGrants-Milan Municipal Airport
CityGrants
CountryUnited States
ICAOKGNT
IATAGNT
Altitude1992 m
CoordinatesGoogle Map
Live Air TrafficLiveATC.net
METARKGNT 201455Z AUTO 15012KT 10SM SCT011 SCT016 04/02 A3030 RMK AO2 T00440015
2019-03-20 14:55:00 Wind: Southeast (150°) 6.17 m/s - Visibility: 16093.4 m - Temperature: 4 °C - Dew point: 2 °C - Humidity: 87% - Pressure: 1026.08 hPa

Sorry, no flights used the airport in this database.